Time;durP1;ratioP1;P1;durP2;ratioP2;P2;SDS_P1;SDS_P2;PMS_P1;PMS_P2;Temp;Humidity;BMP_temperature;BMP_pressure;BME280_temperature;BME280_humidity;BME280_pressure;Samples;Min_cycle;Max_cycle;Signal;HPM_P1;HPM_P2
2021/04/11 00:00:27;;;;;;;3.63;2.08;;;6.50;99.90;;;;;;5064456;28;20029;-70
2021/04/11 00:02:53;;;;;;;11.13;2.67;;;6.50;99.90;;;;;;5064487;28;20041;-71
2021/04/11 00:05:21;;;;;;;5.13;2.25;;;6.40;99.90;;;;;;5065026;28;20021;-70
2021/04/11 00:07:49;;;;;;;3.67;2.00;;;6.40;99.90;;;;;;5064631;28;20021;-69
2021/04/11 00:10:29;;;;;;;6.35;2.00;;;6.40;99.90;;;;;;5064741;28;20126;-70
2021/04/11 00:12:54;;;;;;;4.13;2.35;;;6.40;99.90;;;;;;5064491;28;20478;-70
2021/04/11 00:15:20;;;;;;;5.88;2.53;;;6.30;99.90;;;;;;5064571;28;20033;-70
2021/04/11 00:17:46;;;;;;;7.57;2.75;;;6.40;99.90;;;;;;5064720;28;20024;-70
2021/04/11 00:20:13;;;;;;;4.97;2.28;;;6.40;99.90;;;;;;5064570;28;20035;-70
2021/04/11 00:22:39;;;;;;;5.07;2.45;;;6.40;99.90;;;;;;5063040;28;20041;-71
2021/04/11 00:25:10;;;;;;;5.63;2.83;;;6.40;99.90;;;;;;5064281;28;20021;-70
2021/04/11 00:27:36;;;;;;;4.45;1.73;;;6.50;99.90;;;;;;5064511;28;20032;-70
2021/04/11 00:30:04;;;;;;;11.57;2.58;;;6.50;99.90;;;;;;5062686;28;20029;-71
2021/04/11 00:32:29;;;;;;;5.25;2.85;;;6.50;99.90;;;;;;5062760;28;20452;-70
2021/04/11 00:34:55;;;;;;;7.00;2.17;;;6.40;99.90;;;;;;5063829;28;20029;-69
2021/04/11 00:37:21;;;;;;;6.20;2.45;;;6.50;99.90;;;;;;5064289;28;20025;-70
2021/04/11 00:39:50;;;;;;;4.07;2.15;;;6.50;99.90;;;;;;5064496;28;20033;-73
2021/04/11 00:42:31;;;;;;;4.10;2.17;;;6.50;99.90;;;;;;5062902;28;20044;-69
2021/04/11 00:45:22;;;;;;;5.50;2.22;;;6.50;99.90;;;;;;5062849;28;20060;-69
2021/04/11 00:47:48;;;;;;;5.32;1.85;;;6.50;99.90;;;;;;5064632;28;20032;-70
2021/04/11 00:50:15;;;;;;;5.70;2.63;;;6.50;99.90;;;;;;5066145;28;20466;-71
2021/04/11 00:52:44;;;;;;;6.35;2.22;;;6.50;99.90;;;;;;5066977;28;20698;-69
2021/04/11 00:55:11;;;;;;;6.15;2.05;;;6.60;99.90;;;;;;5068184;28;20028;-69
2021/04/11 00:57:37;;;;;;;10.73;2.72;;;6.60;99.90;;;;;;5068023;28;20501;-68
2021/04/11 01:00:06;;;;;;;4.60;1.98;;;6.60;99.90;;;;;;5067985;28;20052;-70
2021/04/11 01:02:32;;;;;;;5.35;2.35;;;6.60;99.90;;;;;;5068112;28;20041;-70
2021/04/11 01:04:57;;;;;;;6.57;2.90;;;6.60;99.90;;;;;;5066761;28;20025;-69
2021/04/11 01:07:24;;;;;;;8.30;2.80;;;6.60;99.90;;;;;;5066749;28;20035;-67
2021/04/11 01:09:50;;;;;;;4.22;2.60;;;6.60;99.90;;;;;;5068194;28;20064;-73
2021/04/11 01:12:19;;;;;;;5.47;2.80;;;6.70;99.90;;;;;;5067829;28;20029;-69
2021/04/11 01:14:45;;;;;;;6.97;2.58;;;6.70;99.90;;;;;;5066744;28;20493;-67
2021/04/11 01:17:17;;;;;;;5.47;2.63;;;6.70;99.90;;;;;;5068006;28;20089;-70
2021/04/11 01:19:44;;;;;;;6.63;2.75;;;6.80;99.90;;;;;;5066254;28;20044;-69
2021/04/11 01:22:25;;;;;;;6.55;3.17;;;6.60;99.90;;;;;;5067585;28;20037;-68
2021/04/11 01:24:58;;;;;;;7.22;3.55;;;6.70;99.90;;;;;;5068200;28;20131;-71
2021/04/11 01:27:33;;;;;;;6.95;3.05;;;6.70;99.90;;;;;;5066345;28;20088;-69
2021/04/11 01:30:01;;;;;;;5.90;2.90;;;6.70;99.90;;;;;;5067443;28;20060;-70
2021/04/11 01:32:28;;;;;;;5.95;3.10;;;6.80;99.90;;;;;;5066222;28;20021;-69
2021/04/11 01:34:56;;;;;;;7.72;3.40;;;6.80;99.90;;;;;;5066003;28;20032;-68
2021/04/11 01:37:23;;;;;;;8.07;4.05;;;6.80;99.90;;;;;;5067478;28;20463;-69
2021/04/11 01:39:50;;;;;;;12.75;4.28;;;6.90;99.90;;;;;;5066189;28;20031;-67
2021/04/11 01:42:18;;;;;;;9.85;3.65;;;6.90;99.90;;;;;;5065828;28;20420;-69
2021/04/11 01:44:46;;;;;;;8.30;4.20;;;7.00;99.90;;;;;;5065980;28;20029;-68
2021/04/11 01:47:13;;;;;;;10.20;4.45;;;7.00;99.90;;;;;;5067222;28;20029;-69
2021/04/11 01:49:40;;;;;;;10.00;5.03;;;7.10;99.90;;;;;;5066968;28;20021;-68
2021/04/11 01:52:11;;;;;;;13.30;5.47;;;7.10;99.90;;;;;;5067138;28;20025;-67
2021/04/11 01:54:38;;;;;;;9.90;4.88;;;7.00;99.90;;;;;;5067201;28;20062;-68
2021/04/11 01:57:07;;;;;;;13.35;5.65;;;7.10;99.90;;;;;;5067010;28;20029;-69
2021/04/11 01:59:33;;;;;;;13.00;6.35;;;7.10;99.90;;;;;;5065487;28;20371;-69
2021/04/11 02:01:59;;;;;;;13.18;6.13;;;7.10;99.90;;;;;;5064555;28;20040;-70
2021/04/11 02:04:25;;;;;;;17.92;5.95;;;7.20;99.90;;;;;;5065749;28;20112;-69
2021/04/11 02:06:55;;;;;;;14.90;6.68;;;7.30;99.90;;;;;;5066923;28;20036;-69
2021/04/11 02:09:29;;;;;;;14.55;7.07;;;7.30;99.90;;;;;;5067091;28;20419;-69
2021/04/11 02:11:57;;;;;;;15.95;6.93;;;7.30;99.90;;;;;;5066847;28;20025;-71
2021/04/11 02:14:22;;;;;;;19.13;7.90;;;7.40;99.90;;;;;;5066846;28;20066;-71
2021/04/11 02:16:48;;;;;;;15.45;7.55;;;7.40;99.90;;;;;;5067043;28;20021;-70
2021/04/11 02:19:14;;;;;;;15.30;7.30;;;7.40;99.90;;;;;;5064889;28;20441;-70
2021/04/11 02:21:43;;;;;;;17.23;7.70;;;7.40;99.90;;;;;;5066475;28;20528;-71
2021/04/11 02:24:11;;;;;;;20.98;8.38;;;7.50;99.90;;;;;;5066651;28;20025;-69
2021/04/11 02:26:41;;;;;;;19.85;8.80;;;7.50;99.90;;;;;;5066626;28;20039;-70
2021/04/11 02:29:20;;;;;;;21.15;9.02;;;7.50;99.90;;;;;;5066427;28;20029;-68
2021/04/11 02:31:47;;;;;;;17.42;8.52;;;7.60;99.90;;;;;;5066603;28;20054;-70
2021/04/11 02:34:21;;;;;;;19.30;8.45;;;7.60;99.90;;;;;;5066667;28;20067;-68
2021/04/11 02:36:53;;;;;;;26.52;10.27;;;7.60;99.90;;;;;;5065268;28;20032;-68
2021/04/11 02:39:24;;;;;;;17.75;9.02;;;7.70;99.90;;;;;;5066665;28;20063;-69
2021/04/11 02:41:51;;;;;;;23.90;8.90;;;7.70;99.90;;;;;;5066371;28;20104;-70
2021/04/11 02:44:18;;;;;;;17.20;8.18;;;7.70;99.90;;;;;;5066242;28;20029;-70
2021/04/11 02:46:46;;;;;;;20.05;9.13;;;7.70;99.90;;;;;;5065133;28;20035;-68
2021/04/11 02:49:15;;;;;;;23.88;9.60;;;7.70;99.90;;;;;;5065153;28;20088;-70
2021/04/11 02:51:41;;;;;;;24.20;10.55;;;7.80;99.90;;;;;;5066024;28;20078;-68
2021/04/11 02:54:11;;;;;;;18.20;9.30;;;7.80;99.90;;;;;;5064750;28;20025;-71
2021/04/11 02:56:40;;;;;;;26.45;11.55;;;7.80;99.90;;;;;;5064367;28;20025;-68
2021/04/11 02:59:06;;;;;;;24.42;9.98;;;7.90;99.90;;;;;;5065864;28;20031;-69
2021/04/11 03:01:35;;;;;;;22.45;9.88;;;7.90;99.90;;;;;;5065730;28;20041;-68
2021/04/11 03:04:01;;;;;;;31.35;11.27;;;7.90;99.90;;;;;;5065835;28;20032;-69
2021/04/11 03:06:33;;;;;;;24.70;10.45;;;7.90;99.90;;;;;;5065714;28;20028;-70
2021/04/11 03:09:05;;;;;;;22.70;10.18;;;7.90;99.90;;;;;;5065635;28;20092;-68
2021/04/11 03:11:49;;;;;;;25.58;11.13;;;7.90;99.90;;;;;;5065494;28;20021;-70
2021/04/11 03:14:17;;;;;;;25.13;10.23;;;8.00;99.90;;;;;;5065077;28;20169;-70
2021/04/11 03:16:44;;;;;;;27.67;11.20;;;8.00;99.90;;;;;;5065600;28;20548;-69
2021/04/11 03:19:15;;;;;;;23.27;10.35;;;8.00;99.90;;;;;;5063783;28;20049;-69
2021/04/11 03:21:42;;;;;;;23.27;10.88;;;8.00;99.90;;;;;;5065627;28;20083;-68
2021/04/11 03:24:08;;;;;;;24.65;11.73;;;8.00;99.90;;;;;;5065513;28;20033;-68
2021/04/11 03:27:10;;;;;;;33.22;11.80;;;8.00;99.90;;;;;;5065444;28;20047;-69
2021/04/11 03:29:46;;;;;;;26.77;12.27;;;8.10;99.90;;;;;;5064678;28;20048;-68
2021/04/11 03:32:24;;;;;;;23.00;11.52;;;8.10;99.90;;;;;;5064217;28;20037;-68
2021/04/11 03:34:52;;;;;;;26.50;10.35;;;8.10;99.90;;;;;;5065460;28;20029;-70
2021/04/11 03:37:19;;;;;;;24.60;10.85;;;8.10;99.90;;;;;;5065675;28;20059;-70
2021/04/11 03:39:46;;;;;;;24.80;12.68;;;8.00;99.90;;;;;;5064688;28;20109;-71
2021/04/11 03:42:15;;;;;;;29.38;12.52;;;8.10;99.90;;;;;;5065210;28;20040;-69
2021/04/11 03:44:41;;;;;;;29.15;13.60;;;8.20;99.90;;;;;;5065029;28;20021;-69
2021/04/11 03:47:35;;;;;;;23.33;11.00;;;8.20;99.90;;;;;;5063565;28;20412;-69
2021/04/11 03:50:12;;;;;;;20.08;9.70;;;8.20;99.90;;;;;;5065204;28;20079;-69
2021/04/11 03:52:46;;;;;;;24.35;11.32;;;8.20;99.90;;;;;;5065159;28;20025;-68
2021/04/11 03:55:21;;;;;;;21.63;10.10;;;8.20;99.90;;;;;;5065247;28;20037;-70
2021/04/11 03:57:53;;;;;;;22.50;11.13;;;8.30;99.90;;;;;;5065248;28;20040;-67
2021/04/11 04:00:30;;;;;;;25.75;12.00;;;8.20;99.90;;;;;;5064918;28;20040;-67
2021/04/11 04:03:06;;;;;;;24.67;10.25;;;8.20;99.90;;;;;;5063362;28;20112;-69
2021/04/11 04:05:35;;;;;;;20.92;10.95;;;8.20;99.90;;;;;;5064716;28;20044;-69
2021/04/11 04:08:00;;;;;;;27.92;10.95;;;8.30;99.90;;;;;;5064684;28;20119;-69
2021/04/11 04:10:30;;;;;;;31.83;12.68;;;8.30;99.90;;;;;;5064707;28;20028;-70
2021/04/11 04:13:26;;;;;;;22.95;11.75;;;8.20;99.90;;;;;;5064563;28;20025;-70
2021/04/11 04:16:00;;;;;;;27.58;12.30;;;8.30;99.90;;;;;;5064411;28;20045;-68
2021/04/11 04:19:15;;;;;;;21.92;10.10;;;8.30;99.90;;;;;;5062995;28;20108;-68
2021/04/11 04:21:58;;;;;;;24.40;11.70;;;8.30;99.90;;;;;;5062394;28;20062;-69
2021/04/11 04:25:01;;;;;;;26.67;11.05;;;8.30;99.90;;;;;;5064186;28;20032;-69
2021/04/11 04:28:13;;;;;;;24.40;11.00;;;8.30;99.90;;;;;;5061983;28;20473;-70
2021/04/11 04:30:58;;;;;;;21.05;9.63;;;8.30;99.90;;;;;;5056884;28;20108;-69
2021/04/11 04:33:38;;;;;;;24.40;10.48;;;8.30;99.90;;;;;;5064546;28;20035;-70
2021/04/11 04:36:25;;;;;;;28.38;12.18;;;8.30;99.90;;;;;;5063062;28;20056;-69
2021/04/11 04:39:35;;;;;;;31.23;12.70;;;8.30;99.90;;;;;;5064507;28;20033;-71
2021/04/11 04:42:33;;;;;;;32.00;11.48;;;8.30;99.90;;;;;;5055748;28;20045;-70
2021/04/11 04:45:09;;;;;;;20.58;10.60;;;8.30;99.90;;;;;;5063736;28;20112;-69
2021/04/11 04:47:47;;;;;;;23.20;10.88;;;8.30;99.90;;;;;;5064274;28;20036;-70
2021/04/11 04:50:21;;;;;;;23.10;11.05;;;8.30;99.90;;;;;;5064498;28;20534;-68
2021/04/11 04:53:05;;;;;;;25.37;10.57;;;8.30;99.90;;;;;;5063304;28;20116;-69
2021/04/11 04:55:33;;;;;;;24.43;10.60;;;8.30;99.90;;;;;;5062858;28;20029;-69
2021/04/11 04:58:06;;;;;;;38.25;13.00;;;8.30;99.90;;;;;;5064200;28;20017;-69
2021/04/11 05:00:38;;;;;;;26.58;11.65;;;8.30;99.90;;;;;;5064301;28;20028;-70
2021/04/11 05:03:06;;;;;;;26.92;11.02;;;8.30;99.90;;;;;;5063025;28;20041;-69
2021/04/11 05:05:39;;;;;;;27.02;10.57;;;8.20;99.90;;;;;;5064242;28;20029;-69
2021/04/11 05:08:10;;;;;;;25.80;12.32;;;8.30;99.90;;;;;;5062854;28;20025;-69
2021/04/11 05:11:28;;;;;;;27.75;11.60;;;8.30;99.90;;;;;;5063992;28;20029;-68
2021/04/11 05:14:00;;;;;;;24.75;11.13;;;8.30;99.90;;;;;;5045129;28;20068;-68
2021/04/11 05:16:34;;;;;;;24.95;11.98;;;8.30;99.90;;;;;;5061814;28;20037;-69
2021/04/11 05:19:23;;;;;;;;;;;8.30;99.90;;;;;;5063475;28;20076;-69
2021/04/11 05:21:57;;;;;;;21.42;9.95;;;8.30;99.90;;;;;;5062374;28;19913;-70
2021/04/11 05:24:25;;;;;;;;;;;8.30;99.90;;;;;;5064510;28;20116;-69
2021/04/11 05:26:57;;;;;;;22.13;10.98;;;8.40;99.90;;;;;;5064154;28;19904;-70
2021/04/11 05:29:32;;;;;;;20.52;10.23;;;8.40;99.90;;;;;;5063839;28;20455;-69
2021/04/11 05:31:58;;;;;;;24.20;11.52;;;8.40;99.90;;;;;;5064075;28;20025;-69
2021/04/11 05:34:26;;;;;;;33.42;12.25;;;8.40;99.90;;;;;;5062531;28;20048;-70
2021/04/11 05:36:52;;;;;;;27.67;11.52;;;8.40;99.90;;;;;;5066270;28;20021;-70
2021/04/11 05:39:54;;;;;;;24.38;11.40;;;8.40;99.90;;;;;;5064851;28;20024;-71
2021/04/11 05:42:58;;;;;;;35.97;12.40;;;8.40;99.90;;;;;;5067346;28;20048;-71
2021/04/11 05:45:42;;;;;;;21.63;8.48;;;8.40;99.90;;;;;;5065960;28;20040;-73
2021/04/11 05:48:23;;;;;;;21.77;10.10;;;8.40;99.90;;;;;;5050917;28;20026;-70
2021/04/11 05:51:12;;;;;;;22.52;10.25;;;8.40;99.90;;;;;;5047614;28;20025;-74
2021/04/11 05:53:44;;;;;;;19.65;9.32;;;8.40;99.90;;;;;;5047324;28;20476;-71
2021/04/11 05:56:19;;;;;;;21.70;9.43;;;8.40;99.90;;;;;;5054583;28;20021;-73
2021/04/11 05:59:11;;;;;;;20.13;9.98;;;8.40;99.90;;;;;;5067526;28;20142;-75
2021/04/11 06:01:39;;;;;;;18.52;8.05;;;8.50;99.90;;;;;;5066522;28;20091;-71
2021/04/11 06:04:27;;;;;;;21.80;10.18;;;8.50;99.90;;;;;;5066888;28;20040;-73
2021/04/11 06:06:58;;;;;;;22.20;9.52;;;8.50;99.90;;;;;;5065864;28;20029;-72
2021/04/11 06:09:47;;;;;;;28.35;10.95;;;8.40;99.90;;;;;;5059597;28;20057;-73
2021/04/11 06:12:36;;;;;;;29.35;11.38;;;8.50;99.90;;;;;;5047105;28;20564;-71
2021/04/11 06:15:31;;;;;;;28.23;10.55;;;8.50;99.90;;;;;;5046674;28;20089;-73
2021/04/11 06:17:58;;;;;;;27.98;11.73;;;8.50;99.90;;;;;;5046814;28;20083;-72
2021/04/11 06:20:26;;;;;;;24.75;11.05;;;8.50;99.90;;;;;;5044826;28;20025;-72
2021/04/11 06:23:13;;;;;;;19.80;9.25;;;8.50;99.90;;;;;;5046456;28;20041;-74
2021/04/11 06:25:48;;;;;;;26.52;11.02;;;8.50;99.90;;;;;;5045325;28;20025;-74
2021/04/11 06:28:31;;;;;;;19.77;9.48;;;8.50;99.90;;;;;;5046735;28;20021;-71
2021/04/11 06:31:03;;;;;;;20.08;9.07;;;8.50;99.90;;;;;;5045147;28;20026;-74
2021/04/11 06:33:34;;;;;;;20.20;9.73;;;8.50;99.90;;;;;;5046551;28;20089;-73
2021/04/11 06:36:28;;;;;;;26.52;9.98;;;8.50;99.90;;;;;;5046706;28;20025;-75
2021/04/11 06:39:09;;;;;;;35.78;11.55;;;8.60;99.90;;;;;;5046562;28;20025;-75
2021/04/11 06:42:18;;;;;;;23.65;10.93;;;8.60;99.90;;;;;;5046407;28;20055;-72
2021/04/11 06:45:19;;;;;;;32.28;10.75;;;8.70;99.90;;;;;;5046215;28;20083;-72
2021/04/11 06:48:14;;;;;;;19.00;8.98;;;8.70;99.90;;;;;;5043946;28;20478;-73
2021/04/11 06:50:52;;;;;;;;;;;8.70;99.90;;;;;;5060699;28;20048;-73
2021/04/11 06:53:49;;;;;;;19.70;8.00;;;8.70;99.90;;;;;;5064428;28;19905;-72
2021/04/11 06:56:33;;;;;;;12.27;6.53;;;8.60;99.90;;;;;;5065945;28;20029;-73
2021/04/11 06:59:06;;;;;;;16.50;7.38;;;8.50;99.90;;;;;;5064618;28;20037;-73
2021/04/11 07:02:04;;;;;;;16.17;6.90;;;8.50;99.90;;;;;;5065616;28;20090;-70
2021/04/11 07:04:48;;;;;;;12.68;6.28;;;8.40;99.90;;;;;;5065869;28;20052;-70
2021/04/11 07:07:28;;;;;;;8.57;4.68;;;8.40;99.90;;;;;;5065975;28;20067;-70
2021/04/11 07:10:18;;;;;;;11.43;5.20;;;8.40;99.90;;;;;;5065595;28;20029;-70
2021/04/11 07:13:28;;;;;;;9.05;4.88;;;8.40;99.90;;;;;;5065626;28;20093;-71
2021/04/11 07:16:15;;;;;;;8.85;3.63;;;8.40;99.90;;;;;;5064169;28;20021;-71
2021/04/11 07:19:30;;;;;;;10.57;4.60;;;8.30;99.90;;;;;;5065148;28;20053;-70
2021/04/11 07:22:21;;;;;;;8.77;3.75;;;8.20;99.90;;;;;;5062713;28;20045;-70
2021/04/11 07:24:53;;;;;;;8.02;4.15;;;8.10;99.90;;;;;;5065296;28;20112;-72
2021/04/11 07:27:49;;;;;;;8.13;3.83;;;8.10;99.90;;;;;;5063902;28;20029;-71
2021/04/11 07:30:27;;;;;;;7.43;3.38;;;7.90;99.90;;;;;;5063645;28;20057;-73
2021/04/11 07:33:09;;;;;;;8.18;3.75;;;7.80;99.90;;;;;;5063605;28;20029;-72
2021/04/11 07:36:00;;;;;;;8.40;3.78;;;7.60;99.90;;;;;;5050125;28;20018;-70
2021/04/11 07:39:02;;;;;;;9.20;4.72;;;7.50;99.90;;;;;;5044787;28;20029;-73
2021/04/11 07:41:49;;;;;;;6.85;4.07;;;7.40;99.90;;;;;;5043997;28;20128;-71
2021/04/11 07:44:41;;;;;;;12.15;4.82;;;7.50;99.90;;;;;;5045448;28;20018;-70
2021/04/11 07:47:35;;;;;;;7.20;4.53;;;7.50;99.90;;;;;;5047481;28;20040;-71
2021/04/11 07:50:40;;;;;;;9.90;4.97;;;7.50;99.90;;;;;;5053274;28;20044;-71
2021/04/11 07:53:11;;;;;;;13.93;5.65;;;7.40;99.90;;;;;;5059839;28;20493;-70
2021/04/11 07:55:50;;;;;;;24.20;8.90;;;7.40;99.90;;;;;;5058878;28;20025;-71
2021/04/11 07:58:54;;;;;;;14.88;7.65;;;7.40;99.90;;;;;;5044507;28;20024;-73
2021/04/11 08:01:48;;;;;;;13.90;6.03;;;7.40;99.90;;;;;;5050626;28;20079;-71
2021/04/11 08:04:46;;;;;;;18.65;7.55;;;7.30;99.90;;;;;;5048910;28;20088;-72
2021/04/11 08:07:28;;;;;;;18.00;6.88;;;7.20;99.90;;;;;;5059870;28;20490;-69
2021/04/11 08:10:15;;;;;;;11.25;5.25;;;7.20;99.90;;;;;;5064425;28;20021;-72
2021/04/11 08:13:09;;;;;;;14.02;5.88;;;7.10;99.90;;;;;;5044166;28;20120;-69
2021/04/11 08:16:01;;;;;;;10.50;5.40;;;7.00;99.90;;;;;;5059708;28;20073;-71
2021/04/11 08:18:45;;;;;;;11.25;4.30;;;7.00;99.90;;;;;;5062868;28;20183;-70
2021/04/11 08:21:30;;;;;;;;;;;7.00;99.90;;;;;;5064556;28;20049;-70
2021/04/11 08:24:18;;;;;;;12.53;4.00;;;7.00;99.90;;;;;;5058742;28;19916;-72
2021/04/11 08:27:01;;;;;;;8.15;4.03;;;6.90;99.90;;;;;;5042512;28;20056;-69
2021/04/11 08:30:04;;;;;;;9.50;4.05;;;6.80;99.90;;;;;;5044433;28;20091;-69
2021/04/11 08:32:42;;;;;;;8.93;3.60;;;6.90;99.90;;;;;;5044264;28;20029;-71
2021/04/11 08:35:28;;;;;;;6.47;2.20;;;6.90;99.90;;;;;;5044117;28;20033;-69
2021/04/11 08:38:34;;;;;;;9.45;2.95;;;6.80;99.90;;;;;;5044680;28;20025;-70
2021/04/11 08:41:38;;;;;;;7.03;2.78;;;6.70;99.90;;;;;;5043389;28;20119;-70
2021/04/11 08:44:12;;;;;;;6.40;2.50;;;6.70;99.90;;;;;;5042213;28;20056;-73
2021/04/11 08:46:44;;;;;;;;;;;6.80;99.90;;;;;;5049319;28;20049;-71
2021/04/11 08:49:43;;;;;;;3.00;2.05;;;6.80;99.90;;;;;;5061904;28;20320;-69
2021/04/11 08:52:32;;;;;;;8.07;2.70;;;6.80;99.90;;;;;;5063901;28;20029;-70
2021/04/11 08:55:17;;;;;;;7.03;3.03;;;6.90;99.90;;;;;;5051967;28;20025;-69
2021/04/11 08:57:43;;;;;;;6.15;3.10;;;6.80;99.90;;;;;;5043569;28;20061;-70
2021/04/11 09:00:28;;;;;;;5.55;2.70;;;6.80;99.90;;;;;;5045364;28;20029;-69
2021/04/11 09:03:06;;;;;;;6.28;2.72;;;6.90;99.90;;;;;;5062528;28;20095;-72
2021/04/11 09:05:40;;;;;;;7.70;1.63;;;6.90;99.90;;;;;;5053461;28;20041;-73
2021/04/11 09:08:11;;;;;;;4.95;1.90;;;6.90;99.90;;;;;;5044076;28;20021;-70
2021/04/11 09:10:59;;;;;;;3.85;2.00;;;6.80;99.90;;;;;;5045852;28;20094;-72
2021/04/11 09:13:24;;;;;;;4.75;2.78;;;6.80;99.90;;;;;;5054214;28;20088;-72
2021/04/11 09:15:54;;;;;;;4.13;2.30;;;6.90;99.90;;;;;;5051833;28;20025;-71
2021/04/11 09:18:22;;;;;;;7.97;2.95;;;6.80;99.90;;;;;;5058667;28;20041;-71
2021/04/11 09:21:14;;;;;;;6.68;2.42;;;6.80;99.90;;;;;;5061492;28;20054;-73
2021/04/11 09:23:58;;;;;;;3.35;2.13;;;6.80;99.90;;;;;;5067033;28;20032;-72
2021/04/11 09:26:50;;;;;;;6.47;2.28;;;6.90;99.90;;;;;;5067812;28;20025;-71
2021/04/11 09:29:46;;;;;;;3.05;1.73;;;6.90;99.90;;;;;;5067218;28;20029;-73
2021/04/11 09:32:25;;;;;;;3.60;1.90;;;6.90;99.90;;;;;;5047424;28;20143;-73
2021/04/11 09:35:09;;;;;;;5.18;2.08;;;6.90;99.90;;;;;;5046506;28;20041;-73
2021/04/11 09:38:06;;;;;;;4.28;1.83;;;7.00;99.90;;;;;;5046774;28;20037;-74
2021/04/11 09:40:35;;;;;;;2.70;1.40;;;7.00;99.90;;;;;;5045310;28;20038;-71
2021/04/11 09:43:13;;;;;;;3.85;2.08;;;6.90;99.90;;;;;;5045914;28;20041;-74
2021/04/11 09:45:52;;;;;;;2.67;1.70;;;6.80;99.90;;;;;;5055860;28;20096;-72
2021/04/11 09:48:32;;;;;;;2.17;1.38;;;6.80;99.90;;;;;;5065614;28;20370;-75
2021/04/11 09:51:10;;;;;;;2.60;1.38;;;6.70;99.90;;;;;;5067023;28;20116;-74
2021/04/11 09:54:23;;;;;;;4.38;2.08;;;6.70;99.90;;;;;;5056416;28;20442;-73
2021/04/11 09:57:22;;;;;;;2.25;1.40;;;6.60;99.90;;;;;;5083068;28;20036;-74
2021/04/11 10:00:03;;;;;;;16.45;2.03;;;6.60;99.90;;;;;;5084380;28;20061;-74
2021/04/11 10:02:48;;;;;;;3.15;1.58;;;6.60;99.90;;;;;;5053422;28;20053;-74
2021/04/11 10:05:24;;;;;;;;;;;6.60;99.90;;;;;;5045993;28;20040;-77
2021/04/11 10:08:12;;;;;;;1.35;1.17;;;6.60;99.90;;;;;;5062955;28;19912;-71
2021/04/11 10:10:58;;;;;;;1.90;1.10;;;6.60;99.90;;;;;;5062515;28;20079;-74
2021/04/11 10:13:54;;;;;;;2.08;1.33;;;6.60;99.90;;;;;;5051985;28;20113;-75
2021/04/11 10:16:39;;;;;;;2.15;1.42;;;6.70;99.90;;;;;;5046590;28;20033;-73
2021/04/11 10:19:26;;;;;;;2.47;1.48;;;6.60;99.90;;;;;;5044870;28;20133;-76
2021/04/11 10:22:34;;;;;;;3.72;1.42;;;6.60;99.90;;;;;;5047506;28;20049;-72
2021/04/11 10:25:25;;;;;;;1.90;1.08;;;6.60;99.90;;;;;;5066452;28;20033;-73
2021/04/11 10:28:12;;;;;;;2.10;1.05;;;6.50;99.90;;;;;;5065109;28;20028;-74
2021/04/11 10:30:39;;;;;;;1.95;1.02;;;6.40;99.90;;;;;;5064985;28;20032;-71
2021/04/11 10:33:28;;;;;;;3.03;1.13;;;6.30;99.90;;;;;;5064893;28;20029;-73
2021/04/11 10:36:07;;;;;;;1.45;1.05;;;6.20;99.90;;;;;;5064829;28;20177;-74
2021/04/11 10:38:36;;;;;;;2.30;1.13;;;6.20;99.90;;;;;;5065923;28;20059;-72
2021/04/11 10:41:19;;;;;;;1.45;0.95;;;6.20;99.90;;;;;;5066204;28;20029;-73
2021/04/11 10:44:04;;;;;;;6.75;0.98;;;6.20;99.90;;;;;;5066547;28;20033;-71
2021/04/11 10:46:31;;;;;;;0.70;0.57;;;6.10;99.90;;;;;;5064593;28;20120;-71
2021/04/11 10:49:27;;;;;;;2.72;1.23;;;6.10;99.90;;;;;;5065921;28;20036;-73
2021/04/11 10:52:05;;;;;;;2.40;1.05;;;6.20;99.90;;;;;;5064606;28;20091;-72
2021/04/11 10:54:45;;;;;;;3.08;1.20;;;6.20;99.90;;;;;;5065958;28;20029;-72
2021/04/11 10:57:39;;;;;;;1.42;1.00;;;6.20;99.90;;;;;;5065926;28;20040;-72
2021/04/11 11:00:09;;;;;;;1.33;0.85;;;6.20;99.90;;;;;;5065036;28;20032;-73
2021/04/11 11:03:12;;;;;;;4.55;0.85;;;6.30;99.90;;;;;;5044301;28;20046;-74
2021/04/11 11:05:49;;;;;;;1.65;1.02;;;6.30;99.90;;;;;;5045191;28;20029;-72
2021/04/11 11:08:54;;;;;;;0.57;0.40;;;6.30;99.90;;;;;;5045798;28;20030;-72
2021/04/11 11:11:54;;;;;;;0.43;0.43;;;6.10;99.90;;;;;;5051906;28;20036;-74
2021/04/11 11:14:50;;;;;;;1.00;0.40;;;5.90;99.90;;;;;;5062942;28;20063;-71
2021/04/11 11:17:47;;;;;;;15.48;1.13;;;6.00;99.90;;;;;;5064995;28;20111;-73
2021/04/11 11:20:40;;;;;;;2.53;0.82;;;5.90;99.90;;;;;;5064484;28;20094;-74
2021/04/11 11:23:33;;;;;;;2.80;0.90;;;5.80;99.90;;;;;;5044549;28;20692;-73
2021/04/11 11:26:24;;;;;;;1.20;0.60;;;5.80;99.90;;;;;;5044096;28;20033;-73
2021/04/11 11:29:07;;;;;;;1.80;0.60;;;5.90;99.90;;;;;;5061998;28;20042;-72
2021/04/11 11:31:59;;;;;;;2.97;0.82;;;6.00;99.90;;;;;;5043845;28;20036;-72
2021/04/11 11:34:38;;;;;;;3.30;0.45;;;6.00;99.90;;;;;;5043193;28;20029;-72
2021/04/11 11:37:09;;;;;;;2.67;0.63;;;6.10;99.90;;;;;;5045257;28;20029;-72
2021/04/11 11:39:48;;;;;;;1.35;0.60;;;6.10;99.90;;;;;;5044957;28;20461;-73
2021/04/11 11:42:34;;;;;;;0.93;0.50;;;6.00;99.90;;;;;;5037249;28;20033;-71
2021/04/11 11:45:11;;;;;;;0.30;0.30;;;6.10;99.90;;;;;;5062751;28;20107;-72
2021/04/11 11:48:11;;;;;;;0.30;0.30;;;6.20;99.90;;;;;;5064690;28;20029;-72
2021/04/11 11:50:47;;;;;;;3.17;0.85;;;6.20;99.90;;;;;;5064776;28;20044;-72
2021/04/11 11:53:53;;;;;;;1.42;0.77;;;6.20;99.90;;;;;;5065138;28;20112;-73
2021/04/11 11:56:34;;;;;;;4.47;0.98;;;6.20;99.90;;;;;;5064504;28;20076;-73
2021/04/11 11:59:26;;;;;;;1.73;0.88;;;6.20;99.90;;;;;;5064663;28;20035;-73
2021/04/11 12:01:58;;;;;;;2.17;0.65;;;6.20;99.90;;;;;;5064785;28;20033;-75
2021/04/11 12:04:32;;;;;;;2.28;0.47;;;6.30;99.90;;;;;;5063319;28;20021;-73
2021/04/11 12:07:03;;;;;;;1.70;0.52;;;6.20;99.90;;;;;;5064882;28;20036;-73
2021/04/11 12:09:46;;;;;;;2.20;0.77;;;6.20;99.90;;;;;;5064073;28;20040;-74
2021/04/11 12:12:30;;;;;;;0.30;0.30;;;6.20;99.90;;;;;;5063124;28;20415;-74
2021/04/11 12:15:31;;;;;;;1.03;0.63;;;6.20;99.90;;;;;;5062690;28;20159;-74
2021/04/11 12:18:07;;;;;;;0.65;0.57;;;6.10;99.90;;;;;;5062508;28;20145;-72
2021/04/11 12:20:51;;;;;;;0.95;0.30;;;6.10;99.90;;;;;;5064008;28;20055;-72
2021/04/11 12:23:21;;;;;;;1.63;0.98;;;6.00;99.90;;;;;;5063889;28;20033;-75
2021/04/11 12:26:26;;;;;;;0.93;0.63;;;6.00;99.90;;;;;;5064233;28;20090;-76
2021/04/11 12:28:54;;;;;;;0.43;0.20;;;5.90;99.90;;;;;;5061363;28;20025;-71
2021/04/11 12:31:26;;;;;;;1.15;0.52;;;6.00;99.90;;;;;;5044924;28;20417;-72
2021/04/11 12:34:19;;;;;;;1.25;0.73;;;5.80;99.90;;;;;;5062946;28;20047;-73
2021/04/11 12:37:07;;;;;;;1.33;0.70;;;5.70;99.90;;;;;;5064288;28;20037;-74
2021/04/11 12:39:34;;;;;;;3.17;0.88;;;5.60;99.90;;;;;;5062629;28;20040;-74
2021/04/11 12:42:40;;;;;;;2.85;1.27;;;5.60;99.90;;;;;;5063726;28;20033;-73
2021/04/11 12:45:18;;;;;;;1.98;0.93;;;5.60;99.90;;;;;;5064121;28;20048;-72
2021/04/11 12:48:07;;;;;;;3.30;1.20;;;5.60;99.90;;;;;;5068256;28;20029;-73
2021/04/11 12:50:34;;;;;;;0.55;0.55;;;5.60;99.90;;;;;;5067760;28;20532;-73
2021/04/11 12:53:27;;;;;;;1.23;0.63;;;5.70;99.90;;;;;;5067759;28;20029;-73
2021/04/11 12:55:59;;;;;;;0.82;0.50;;;5.70;99.90;;;;;;5067972;28;20041;-71
2021/04/11 12:58:36;;;;;;;2.58;0.60;;;5.70;99.90;;;;;;5067422;28;20052;-74
2021/04/11 13:01:07;;;;;;;0.43;0.35;;;5.80;99.90;;;;;;5067582;28;20460;-72
2021/04/11 13:03:53;;;;;;;0.68;0.30;;;5.80;99.90;;;;;;5067451;28;20102;-72
2021/04/11 13:06:28;;;;;;;0.98;0.43;;;6.10;99.90;;;;;;5067131;28;20033;-74
2021/04/11 13:09:05;;;;;;;0.73;0.43;;;6.20;99.90;;;;;;5066384;28;20025;-72
2021/04/11 13:11:54;;;;;;;1.33;1.00;;;6.20;99.90;;;;;;5065751;28;20024;-72
2021/04/11 13:14:30;;;;;;;1.30;0.75;;;6.30;99.90;;;;;;5067863;28;20036;-73
2021/04/11 13:17:32;;;;;;;2.25;1.05;;;6.40;99.90;;;;;;5067182;28;20033;-74
2021/04/11 13:20:08;;;;;;;2.47;1.05;;;6.30;99.90;;;;;;5065471;28;20669;-73
2021/04/11 13:22:46;;;;;;;0.95;0.73;;;6.30;99.90;;;;;;5066578;28;20063;-74
2021/04/11 13:25:33;;;;;;;1.80;0.50;;;6.30;99.90;;;;;;5067260;28;20025;-73
2021/04/11 13:28:29;;;;;;;0.88;0.60;;;6.30;99.90;;;;;;5067500;28;20055;-72
2021/04/11 13:31:10;;;;;;;1.30;0.77;;;6.30;99.90;;;;;;5066858;28;20096;-72
2021/04/11 13:33:44;;;;;;;0.77;0.63;;;6.30;99.90;;;;;;5067435;28;20071;-71
2021/04/11 13:36:28;;;;;;;2.38;0.60;;;6.30;99.90;;;;;;5067388;28;20040;-70
2021/04/11 13:39:50;;;;;;;0.40;0.40;;;6.10;99.90;;;;;;5067732;28;20025;-74
2021/04/11 13:42:26;;;;;;;0.63;0.40;;;6.00;99.90;;;;;;5065012;28;20480;-72
2021/04/11 13:45:14;;;;;;;1.02;0.40;;;5.90;99.90;;;;;;5067495;28;20107;-72
2021/04/11 13:48:13;;;;;;;1.10;0.55;;;6.00;99.90;;;;;;5067060;28;20025;-72
2021/04/11 13:50:50;;;;;;;0.15;0.13;;;6.00;99.90;;;;;;5066913;28;20025;-70
2021/04/11 13:53:35;;;;;;;0.80;0.52;;;6.00;99.90;;;;;;5052316;28;20064;-71
2021/04/11 13:56:40;;;;;;;1.08;0.60;;;6.00;99.90;;;;;;5046605;28;20045;-72
2021/04/11 13:59:20;;;;;;;5.72;0.40;;;6.10;99.90;;;;;;5084733;28;20037;-71